Time;durP1;ratioP1;P1;durP2;ratioP2;P2;SDS_P1;SDS_P2;PMS_P1;PMS_P2;Temp;Humidity;BMP_temperature;BMP_pressure;BME280_temperature;BME280_humidity;BME280_pressure;Samples;Min_cycle;Max_cycle;Signal;HPM_P1;HPM_P2
2023/09/05 00:01:56;;;;;;;4.53;1.33;;;25.70;62.20;;;;;;4971033;28;20086;-84
2023/09/05 00:04:21;;;;;;;3.03;1.27;;;25.80;62.80;;;;;;4959433;28;20435;-84
2023/09/05 00:06:47;;;;;;;4.63;1.17;;;25.80;62.20;;;;;;4974107;28;20085;-83
2023/09/05 00:09:17;;;;;;;6.28;1.40;;;25.80;62.40;;;;;;4976049;28;20360;-83
2023/09/05 00:11:42;;;;;;;4.55;1.10;;;25.70;62.40;;;;;;4963817;28;20022;-83
2023/09/05 00:14:10;;;;;;;3.65;1.48;;;25.80;62.20;;;;;;4953309;28;20428;-83
2023/09/05 00:16:36;;;;;;;6.82;1.40;;;25.80;62.80;;;;;;4968611;28;20089;-82
2023/09/05 00:19:02;;;;;;;3.42;1.20;;;25.80;62.80;;;;;;4958776;28;20066;-82
2023/09/05 00:21:28;;;;;;;2.00;1.23;;;25.80;62.10;;;;;;4963724;28;20414;-83
2023/09/05 00:23:53;;;;;;;2.78;1.20;;;25.70;62.40;;;;;;4970865;28;20017;-82
2023/09/05 00:26:19;;;;;;;2.55;1.17;;;25.80;61.80;;;;;;4974021;28;20023;-83
2023/09/05 00:28:46;;;;;;;1.55;1.00;;;25.70;62.10;;;;;;4971333;28;20031;-83
2023/09/05 00:31:14;;;;;;;4.82;1.35;;;25.70;62.40;;;;;;4964015;28;20038;-83
2023/09/05 00:33:40;;;;;;;1.58;1.05;;;25.80;62.30;;;;;;4975579;28;20113;-81
2023/09/05 00:36:05;;;;;;;1.75;1.08;;;25.80;63.10;;;;;;4972400;28;20483;-82
2023/09/05 00:38:33;;;;;;;4.75;1.10;;;25.80;62.80;;;;;;4961246;28;20023;-79
2023/09/05 00:41:00;;;;;;;1.73;1.23;;;25.80;62.60;;;;;;4962625;28;20067;-82
2023/09/05 00:43:26;;;;;;;1.95;0.95;;;25.80;63.00;;;;;;4962069;28;20069;-82
2023/09/05 00:45:56;;;;;;;1.95;1.20;;;25.80;63.30;;;;;;4957581;28;20061;-83
2023/09/05 00:48:28;;;;;;;2.28;1.05;;;25.80;63.80;;;;;;4975385;28;20093;-84
2023/09/05 00:50:56;;;;;;;1.15;0.90;;;25.80;63.20;;;;;;4974250;28;20475;-84
2023/09/05 00:53:26;;;;;;;1.92;0.90;;;25.80;62.70;;;;;;4969156;28;20526;-84
2023/09/05 00:55:52;;;;;;;1.55;1.20;;;25.80;62.70;;;;;;4974279;28;20022;-84
2023/09/05 00:58:19;;;;;;;1.42;1.00;;;25.70;62.40;;;;;;4975008;28;20037;-85
2023/09/05 01:00:45;;;;;;;1.55;1.00;;;25.80;63.10;;;;;;4968323;28;20135;-84
2023/09/05 01:03:10;;;;;;;2.03;1.10;;;25.70;62.50;;;;;;4964057;28;20458;-84
2023/09/05 01:05:39;;;;;;;3.05;1.23;;;25.80;62.40;;;;;;4965710;28;20031;-83
2023/09/05 01:08:25;;;;;;;2.00;1.15;;;25.80;62.80;;;;;;4971947;28;20227;-84
2023/09/05 01:11:08;;;;;;;2.55;1.35;;;25.80;62.00;;;;;;4975075;28;20170;-83
2023/09/05 01:13:37;;;;;;;2.20;1.20;;;25.80;62.00;;;;;;4968389;28;20030;-83
2023/09/05 01:16:03;;;;;;;1.73;1.23;;;25.80;62.20;;;;;;4967108;28;20031;-84
2023/09/05 01:18:33;;;;;;;3.13;0.90;;;25.80;61.80;;;;;;4973793;28;20023;-83
2023/09/05 01:21:05;;;;;;;;;;;25.90;61.30;;;;;;4957782;28;20023;-83
2023/09/05 01:23:38;;;;;;;3.45;1.40;;;25.80;61.60;;;;;;4972789;28;19918;-83
2023/09/05 01:26:04;;;;;;;4.78;1.25;;;25.80;61.70;;;;;;4969771;28;20043;-83
2023/09/05 01:28:35;;;;;;;1.08;0.90;;;25.80;61.60;;;;;;4970993;28;20035;-83
2023/09/05 01:31:01;;;;;;;1.45;1.10;;;25.80;61.30;;;;;;4972432;28;20041;-82
2023/09/05 01:33:26;;;;;;;1.30;1.10;;;25.80;61.20;;;;;;4970237;28;20023;-82
2023/09/05 01:35:52;;;;;;;1.52;1.15;;;25.80;61.40;;;;;;4971279;28;20463;-81
2023/09/05 01:38:18;;;;;;;1.30;1.00;;;25.80;61.40;;;;;;4970593;28;20034;-81
2023/09/05 01:40:43;;;;;;;2.50;1.00;;;25.80;61.60;;;;;;4968818;28;20034;-82
2023/09/05 01:43:09;;;;;;;1.77;1.10;;;25.80;61.80;;;;;;4965186;28;20507;-81
2023/09/05 01:45:35;;;;;;;2.45;1.08;;;25.80;62.00;;;;;;4969689;28;20038;-81
2023/09/05 01:48:01;;;;;;;3.50;1.20;;;25.80;62.30;;;;;;4965090;28;20083;-81
2023/09/05 01:50:32;;;;;;;1.63;1.10;;;25.80;62.40;;;;;;4968341;28;20019;-81
2023/09/05 01:52:58;;;;;;;2.75;1.00;;;25.80;62.50;;;;;;4972135;28;20025;-81
2023/09/05 01:55:24;;;;;;;1.95;1.30;;;25.80;63.20;;;;;;4972456;28;20467;-81
2023/09/05 01:57:49;;;;;;;2.70;1.27;;;25.80;63.10;;;;;;4969261;28;20030;-80
2023/09/05 02:00:17;;;;;;;2.33;1.30;;;25.70;63.00;;;;;;4973036;28;20045;-81
2023/09/05 02:02:43;;;;;;;1.60;1.00;;;25.70;63.20;;;;;;4973549;28;20030;-80
2023/09/05 02:05:09;;;;;;;3.25;1.20;;;25.70;63.60;;;;;;4972228;28;20126;-80
2023/09/05 02:07:36;;;;;;;3.42;1.20;;;25.60;63.70;;;;;;4964256;28;20055;-80
2023/09/05 02:10:02;;;;;;;1.48;1.10;;;25.60;63.80;;;;;;4966397;28;20046;-80
2023/09/05 02:12:28;;;;;;;1.02;0.93;;;25.60;64.30;;;;;;4952053;28;20363;-79
2023/09/05 02:14:53;;;;;;;1.92;0.98;;;25.60;64.20;;;;;;4942783;29;20031;-79
2023/09/05 02:17:20;;;;;;;8.10;1.80;;;25.60;64.50;;;;;;4960495;28;20027;-81
2023/09/05 02:19:46;;;;;;;1.80;1.00;;;25.60;64.70;;;;;;4971620;28;20033;-82
2023/09/05 02:22:12;;;;;;;1.38;0.98;;;25.60;64.50;;;;;;4970764;28;20770;-81
2023/09/05 02:24:37;;;;;;;1.83;1.08;;;25.60;64.20;;;;;;4960051;28;20046;-82
2023/09/05 02:27:03;;;;;;;2.63;1.15;;;25.60;64.20;;;;;;4971204;28;20035;-82
2023/09/05 02:29:29;;;;;;;2.95;1.30;;;25.60;64.40;;;;;;4964879;28;20372;-82
2023/09/05 02:31:55;;;;;;;2.80;1.10;;;25.60;64.50;;;;;;4954216;28;20026;-82
2023/09/05 02:34:20;;;;;;;1.10;0.90;;;25.50;64.60;;;;;;4964489;28;20106;-82
2023/09/05 02:36:46;;;;;;;2.30;1.27;;;25.50;65.30;;;;;;4959421;28;20034;-82
2023/09/05 02:39:12;;;;;;;2.38;1.30;;;25.50;65.20;;;;;;4947870;28;20037;-82
2023/09/05 02:41:38;;;;;;;3.08;1.25;;;25.40;65.10;;;;;;4971195;28;20482;-82
2023/09/05 02:44:04;;;;;;;3.53;1.50;;;25.50;65.50;;;;;;4959697;28;20035;-83
2023/09/05 02:46:29;;;;;;;2.42;1.05;;;25.40;65.80;;;;;;4959800;28;20027;-82
2023/09/05 02:48:55;;;;;;;2.08;1.20;;;25.40;65.70;;;;;;4964136;28;20791;-83
2023/09/05 02:51:21;;;;;;;3.28;1.30;;;25.40;65.90;;;;;;4965000;28;20042;-82
2023/09/05 02:53:48;;;;;;;2.10;1.10;;;25.40;65.90;;;;;;4972377;28;20042;-82
2023/09/05 02:56:16;;;;;;;2.08;1.10;;;25.40;66.30;;;;;;4971416;28;20027;-81
2023/09/05 02:58:42;;;;;;;2.42;1.45;;;25.40;66.30;;;;;;4972412;28;20106;-81
2023/09/05 03:01:12;;;;;;;1.70;1.20;;;25.30;65.90;;;;;;4969162;28;20109;-81
2023/09/05 03:03:38;;;;;;;;;;;25.30;66.10;;;;;;4962629;28;20039;-82
2023/09/05 03:06:16;;;;;;;1.15;0.93;;;25.30;66.30;;;;;;5078090;23;19964;-82
2023/09/05 03:08:45;;;;;;;3.08;1.27;;;25.30;66.20;;;;;;5003160;28;20109;-87
2023/09/05 03:11:11;;;;;;;2.33;1.10;;;25.20;66.60;;;;;;4988123;28;20038;-83
2023/09/05 03:13:37;;;;;;;3.28;1.27;;;25.20;66.00;;;;;;4975023;28;20034;-81
2023/09/05 03:16:02;;;;;;;2.42;1.60;;;25.10;65.90;;;;;;4992853;28;20089;-81
2023/09/05 03:18:28;;;;;;;1.90;1.20;;;25.20;66.30;;;;;;4992734;28;20034;-83
2023/09/05 03:20:54;;;;;;;1.88;1.05;;;25.10;66.30;;;;;;4981169;28;20029;-81
2023/09/05 03:23:21;;;;;;;2.30;1.23;;;25.10;66.40;;;;;;4983030;28;20075;-87
2023/09/05 03:25:47;;;;;;;2.95;1.45;;;25.10;66.50;;;;;;4988326;28;20378;-87
2023/09/05 03:28:14;;;;;;;3.03;1.73;;;25.10;66.30;;;;;;5011085;28;20037;-81
2023/09/05 03:30:40;;;;;;;3.15;2.13;;;25.10;66.40;;;;;;4995769;28;20029;-81
2023/09/05 03:33:07;;;;;;;3.65;2.20;;;25.10;66.60;;;;;;4983303;28;20034;-82
2023/09/05 03:35:33;;;;;;;3.55;1.75;;;25.10;66.60;;;;;;5005345;28;20093;-81
2023/09/05 03:37:59;;;;;;;2.35;1.40;;;25.00;66.40;;;;;;4993360;28;20026;-81
2023/09/05 03:40:24;;;;;;;5.18;1.60;;;25.10;66.30;;;;;;4996001;28;20088;-81
2023/09/05 03:42:50;;;;;;;2.60;1.60;;;25.10;66.30;;;;;;5009363;28;20034;-82
2023/09/05 03:45:19;;;;;;;3.53;1.77;;;25.00;66.40;;;;;;5005591;28;20391;-82
2023/09/05 03:47:45;;;;;;;2.55;1.60;;;25.00;66.70;;;;;;4990508;28;20034;-83
2023/09/05 03:50:13;;;;;;;3.75;1.40;;;25.00;66.70;;;;;;4996196;28;20072;-82
2023/09/05 03:52:38;;;;;;;2.60;1.33;;;25.00;66.60;;;;;;5004192;28;20537;-82
2023/09/05 03:55:05;;;;;;;4.20;1.80;;;25.00;66.80;;;;;;4976998;28;20062;-80
2023/09/05 03:57:31;;;;;;;3.65;1.90;;;25.00;66.90;;;;;;4992288;28;20471;-84
2023/09/05 03:59:57;;;;;;;2.35;1.42;;;24.90;66.80;;;;;;5000058;28;20098;-83
2023/09/05 04:02:22;;;;;;;3.38;1.70;;;24.90;66.70;;;;;;4996347;28;20710;-81
2023/09/05 04:04:48;;;;;;;4.05;2.05;;;24.80;66.70;;;;;;5004964;28;20509;-81
2023/09/05 04:07:14;;;;;;;2.45;1.83;;;24.80;66.70;;;;;;5005886;28;20217;-81
2023/09/05 04:09:39;;;;;;;4.30;1.58;;;24.80;67.40;;;;;;5002988;28;20113;-80
2023/09/05 04:12:06;;;;;;;2.20;1.50;;;24.70;66.90;;;;;;4999796;28;20033;-81
2023/09/05 04:14:31;;;;;;;3.38;1.30;;;24.70;67.10;;;;;;5012587;28;20105;-81
2023/09/05 04:16:57;;;;;;;1.92;1.50;;;24.70;67.30;;;;;;5004169;28;20049;-82
2023/09/05 04:19:23;;;;;;;2.72;1.13;;;24.70;67.60;;;;;;5015164;28;20038;-82
2023/09/05 04:21:48;;;;;;;3.03;1.52;;;24.60;67.40;;;;;;5009388;28;20034;-81
2023/09/05 04:24:14;;;;;;;1.58;1.38;;;24.60;67.60;;;;;;5006429;28;20053;-82
2023/09/05 04:26:39;;;;;;;2.17;1.30;;;24.60;67.50;;;;;;5011653;28;20105;-80
2023/09/05 04:29:05;;;;;;;1.77;1.30;;;24.60;67.40;;;;;;5007243;28;20030;-82
2023/09/05 04:31:31;;;;;;;1.65;1.17;;;24.60;67.80;;;;;;5004746;28;20036;-81
2023/09/05 04:33:57;;;;;;;1.70;1.33;;;24.60;67.20;;;;;;5006592;28;20037;-79
2023/09/05 04:36:22;;;;;;;4.90;1.33;;;24.50;67.20;;;;;;5014324;28;20041;-82
2023/09/05 04:38:50;;;;;;;2.03;1.33;;;24.50;67.20;;;;;;4992081;28;20037;-83
2023/09/05 04:41:16;;;;;;;2.55;1.50;;;24.50;67.20;;;;;;4993799;28;20038;-82
2023/09/05 04:43:41;;;;;;;1.65;1.10;;;24.50;67.30;;;;;;5001472;28;20030;-82
2023/09/05 04:46:09;;;;;;;2.47;1.48;;;24.50;67.30;;;;;;5002713;28;20048;-81
2023/09/05 04:48:35;;;;;;;4.28;1.40;;;24.40;67.20;;;;;;5013045;28;20026;-81
2023/09/05 04:51:03;;;;;;;2.45;1.20;;;24.40;66.90;;;;;;5003868;28;20398;-83
2023/09/05 04:53:32;;;;;;;2.17;1.45;;;24.40;67.10;;;;;;4995973;28;20116;-82
2023/09/05 04:56:00;;;;;;;2.10;1.15;;;24.40;67.10;;;;;;5007720;28;20048;-81
2023/09/05 04:58:29;;;;;;;6.18;1.98;;;24.30;66.90;;;;;;4999436;28;20038;-81
2023/09/05 05:01:01;;;;;;;5.47;1.40;;;24.20;66.80;;;;;;4985967;28;20038;-81
2023/09/05 05:03:28;;;;;;;1.55;1.20;;;24.30;67.00;;;;;;5011113;28;20532;-82
2023/09/05 05:05:54;;;;;;;2.20;1.25;;;24.30;66.90;;;;;;4999970;28;20077;-81
2023/09/05 05:08:20;;;;;;;1.58;1.20;;;24.20;66.90;;;;;;4995229;28;20418;-81
2023/09/05 05:10:45;;;;;;;2.88;1.35;;;24.20;66.90;;;;;;4994455;28;20080;-80
2023/09/05 05:13:11;;;;;;;2.03;1.40;;;24.20;66.90;;;;;;5002382;28;20038;-80
2023/09/05 05:15:37;;;;;;;1.38;1.00;;;24.20;67.10;;;;;;4996442;28;20023;-81
2023/09/05 05:18:03;;;;;;;2.67;1.40;;;24.30;66.90;;;;;;4997422;28;20034;-80
2023/09/05 05:20:28;;;;;;;1.60;1.08;;;24.30;66.60;;;;;;4996391;28;20030;-80
2023/09/05 05:22:54;;;;;;;9.40;1.65;;;24.20;66.80;;;;;;4996215;28;20467;-81
2023/09/05 05:25:20;;;;;;;1.60;0.90;;;24.20;66.20;;;;;;5001325;28;20026;-81
2023/09/05 05:27:45;;;;;;;1.40;1.05;;;24.20;66.40;;;;;;4998383;28;20022;-81
2023/09/05 05:30:12;;;;;;;2.80;1.58;;;24.20;66.00;;;;;;4996667;28;20049;-81
2023/09/05 05:32:38;;;;;;;1.98;1.38;;;24.20;65.60;;;;;;5001522;28;20022;-80
2023/09/05 05:35:04;;;;;;;1.35;1.10;;;24.20;65.00;;;;;;4998574;28;20031;-86
2023/09/05 05:37:30;;;;;;;2.22;1.30;;;24.20;64.90;;;;;;4994742;28;20041;-87
2023/09/05 05:39:55;;;;;;;3.13;1.27;;;24.20;64.90;;;;;;4995472;28;20034;-88
2023/09/05 05:42:21;;;;;;;1.33;1.02;;;24.20;64.70;;;;;;5011791;28;20429;-87
2023/09/05 05:44:47;;;;;;;1.67;1.23;;;24.20;64.50;;;;;;4993850;28;20026;-87
2023/09/05 05:47:12;;;;;;;2.42;1.50;;;24.30;64.70;;;;;;4997688;28;20038;-87
2023/09/05 05:49:38;;;;;;;2.33;1.30;;;24.30;63.90;;;;;;5005230;28;20119;-87
2023/09/05 05:52:04;;;;;;;1.85;1.10;;;24.30;64.30;;;;;;4989803;28;20034;-86
2023/09/05 05:54:30;;;;;;;2.42;1.40;;;24.30;63.60;;;;;;4993727;28;20031;-87
2023/09/05 05:56:56;;;;;;;4.50;1.95;;;24.30;63.60;;;;;;4984589;28;20036;-80
2023/09/05 05:59:24;;;;;;;2.22;1.15;;;24.30;63.20;;;;;;4992213;28;20034;-86
2023/09/05 06:01:52;;;;;;;2.55;1.15;;;24.30;63.40;;;;;;4997787;28;20481;-87
2023/09/05 06:04:19;;;;;;;1.52;0.93;;;24.40;62.80;;;;;;4994211;28;20035;-87
2023/09/05 06:06:49;;;;;;;3.42;1.17;;;24.40;62.80;;;;;;5005571;28;20034;-86
2023/09/05 06:09:18;;;;;;;9.10;1.50;;;24.40;62.60;;;;;;4994358;28;21847;-86
2023/09/05 06:11:45;;;;;;;1.60;1.35;;;24.40;62.90;;;;;;5008301;28;20045;-86
2023/09/05 06:14:12;;;;;;;3.15;1.52;;;24.40;62.90;;;;;;4993904;28;20034;-89
2023/09/05 06:16:37;;;;;;;2.90;1.60;;;24.40;62.60;;;;;;4987702;28;20438;-91
2023/09/05 06:19:03;;;;;;;2.50;1.13;;;24.40;62.80;;;;;;4996733;28;20035;-95
2023/09/05 06:21:29;;;;;;;4.85;1.25;;;24.50;62.60;;;;;;4996821;28;20437;-94
2023/09/05 06:23:54;;;;;;;2.08;1.25;;;24.50;62.40;;;;;;4997013;28;20497;-94
2023/09/05 06:26:20;;;;;;;1.25;1.10;;;24.40;62.30;;;;;;4980360;28;20028;-95
2023/09/05 06:28:48;;;;;;;2.85;1.30;;;24.40;62.10;;;;;;4998689;28;20057;-91
2023/09/05 06:31:14;;;;;;;1.77;1.05;;;24.40;62.60;;;;;;4997759;28;20504;-93
2023/09/05 06:33:40;;;;;;;2.63;1.50;;;24.40;63.00;;;;;;4989630;28;20096;-91
2023/09/05 06:36:07;;;;;;;3.67;1.42;;;24.40;62.90;;;;;;5007473;28;20351;-91
2023/09/05 06:38:33;;;;;;;3.22;1.30;;;24.50;63.10;;;;;;5005672;28;20025;-95
2023/09/05 06:41:10;;;;;;;3.13;1.80;;;24.50;63.50;;;;;;4985493;28;20040;-93
2023/09/05 06:43:36;;;;;;;2.50;1.13;;;24.50;63.90;;;;;;4998136;28;20483;-87
2023/09/05 06:46:06;;;;;;;2.15;1.50;;;24.50;64.30;;;;;;4994669;28;20033;-86
2023/09/05 06:48:34;;;;;;;2.15;1.40;;;24.50;64.50;;;;;;5006239;28;20033;-86
2023/09/05 06:51:00;;;;;;;1.55;1.17;;;24.50;65.10;;;;;;5003127;28;20120;-84
2023/09/05 06:53:29;;;;;;;2.80;1.20;;;24.60;64.80;;;;;;5010782;28;20026;-83
2023/09/05 06:55:55;;;;;;;1.67;1.00;;;24.60;64.00;;;;;;5011764;28;20117;-83
2023/09/05 06:58:23;;;;;;;5.07;1.27;;;24.60;64.90;;;;;;4995188;28;20534;-85
2023/09/05 07:00:53;;;;;;;2.38;1.30;;;24.60;64.00;;;;;;5004004;28;20056;-84
2023/09/05 07:03:20;;;;;;;4.32;1.30;;;24.60;64.10;;;;;;5010258;28;20088;-85
2023/09/05 07:05:49;;;;;;;1.90;1.60;;;24.70;65.00;;;;;;5013338;28;20053;-84
2023/09/05 07:08:16;;;;;;;2.50;1.63;;;24.70;63.90;;;;;;4986300;28;20034;-79
2023/09/05 07:10:42;;;;;;;1.25;1.00;;;24.70;64.40;;;;;;4993650;28;20050;-80
2023/09/05 07:13:07;;;;;;;2.15;1.30;;;24.80;64.30;;;;;;4993622;28;20077;-79
2023/09/05 07:15:33;;;;;;;3.92;1.27;;;24.80;64.20;;;;;;4993479;28;20102;-79
2023/09/05 07:17:59;;;;;;;1.80;1.25;;;24.80;64.00;;;;;;4976193;28;20029;-79
2023/09/05 07:20:25;;;;;;;3.92;1.70;;;24.90;64.90;;;;;;4976393;28;20066;-80
2023/09/05 07:22:51;;;;;;;3.78;1.30;;;25.00;64.40;;;;;;4993149;28;20471;-79
2023/09/05 07:25:16;;;;;;;3.00;1.70;;;24.90;63.80;;;;;;4976032;28;20048;-80
2023/09/05 07:27:42;;;;;;;3.20;1.38;;;25.00;64.40;;;;;;4993566;28;20035;-80
2023/09/05 07:30:08;;;;;;;3.88;1.38;;;25.10;64.40;;;;;;4993544;28;20034;-80
2023/09/05 07:32:34;;;;;;;2.35;1.30;;;25.10;64.40;;;;;;4975245;28;20029;-80
2023/09/05 07:35:00;;;;;;;1.88;1.40;;;25.20;65.00;;;;;;4996610;28;20481;-80
2023/09/05 07:37:25;;;;;;;3.67;1.67;;;25.30;64.80;;;;;;4996787;28;20014;-79
2023/09/05 07:39:52;;;;;;;2.13;1.30;;;25.30;64.30;;;;;;4997032;28;20068;-79
2023/09/05 07:42:18;;;;;;;2.00;1.42;;;25.40;64.20;;;;;;4997191;28;20056;-79
2023/09/05 07:44:44;;;;;;;4.75;2.10;;;25.40;63.40;;;;;;4997155;28;20466;-79
2023/09/05 07:47:10;;;;;;;2.60;1.27;;;25.40;62.60;;;;;;4996462;28;20533;-80
2023/09/05 07:49:37;;;;;;;2.47;1.58;;;25.40;62.30;;;;;;4996970;28;20042;-80
2023/09/05 07:52:04;;;;;;;2.47;1.70;;;25.40;62.20;;;;;;4997452;28;20025;-79
2023/09/05 07:54:30;;;;;;;2.78;1.48;;;25.50;61.90;;;;;;4997015;28;20053;-80
2023/09/05 07:56:55;;;;;;;1.95;1.67;;;25.60;61.80;;;;;;4978940;28;20058;-80
2023/09/05 07:59:23;;;;;;;7.00;2.00;;;25.70;62.20;;;;;;4963097;28;20038;-79
2023/09/05 08:01:48;;;;;;;2.63;1.65;;;25.70;60.90;;;;;;4977209;28;20416;-80
2023/09/05 08:04:14;;;;;;;4.55;1.95;;;25.80;61.20;;;;;;4977134;28;20038;-79
2023/09/05 08:06:41;;;;;;;7.05;1.50;;;25.80;61.00;;;;;;4976893;28;20034;-80
2023/09/05 08:09:07;;;;;;;2.67;1.67;;;25.90;61.20;;;;;;4976408;28;20027;-79
2023/09/05 08:11:33;;;;;;;3.25;1.77;;;25.90;61.40;;;;;;4996787;28;20023;-79
2023/09/05 08:13:58;;;;;;;2.40;1.85;;;26.00;61.10;;;;;;5007570;28;20076;-79
2023/09/05 08:16:24;;;;;;;3.83;1.70;;;26.00;60.80;;;;;;5012667;28;20034;-80
2023/09/05 08:18:50;;;;;;;5.57;1.80;;;26.00;60.90;;;;;;5010320;28;20034;-85
2023/09/05 08:21:17;;;;;;;4.50;1.85;;;26.00;60.70;;;;;;5005604;28;20475;-86
2023/09/05 08:23:43;;;;;;;3.95;1.77;;;26.00;60.80;;;;;;4996904;28;20034;-86
2023/09/05 08:26:10;;;;;;;5.68;1.60;;;26.00;60.40;;;;;;4996549;28;20031;-86
2023/09/05 08:28:42;;;;;;;2.60;1.95;;;26.10;60.20;;;;;;4997581;28;20038;-86
2023/09/05 08:31:08;;;;;;;12.63;2.83;;;26.10;58.60;;;;;;5002154;28;20034;-86
2023/09/05 08:33:34;;;;;;;5.18;1.88;;;26.10;57.70;;;;;;4996421;28;20113;-88
2023/09/05 08:35:59;;;;;;;4.28;1.80;;;26.10;58.50;;;;;;4996347;28;20498;-80
2023/09/05 08:38:25;;;;;;;5.25;1.90;;;26.20;58.70;;;;;;4978298;28;20533;-79
2023/09/05 08:40:51;;;;;;;2.95;1.70;;;26.30;59.30;;;;;;4995357;28;20052;-80
2023/09/05 08:43:17;;;;;;;2.70;1.67;;;26.40;59.20;;;;;;4995720;28;20030;-80
2023/09/05 08:45:48;;;;;;;3.35;1.75;;;26.50;58.60;;;;;;4994975;28;20045;-87
2023/09/05 08:48:14;;;;;;;2.78;1.75;;;26.60;58.30;;;;;;4978707;28;20029;-85
2023/09/05 08:50:41;;;;;;;5.38;1.45;;;26.70;58.10;;;;;;4978796;28;20034;-85
2023/09/05 08:53:14;;;;;;;2.05;1.40;;;26.90;58.60;;;;;;4996008;28;20431;-86
2023/09/05 08:55:45;;;;;;;2.55;1.77;;;27.00;57.40;;;;;;4978701;28;20382;-87
2023/09/05 08:58:15;;;;;;;3.25;1.70;;;27.10;56.30;;;;;;4978264;28;20109;-87
2023/09/05 09:00:43;;;;;;;4.15;1.58;;;27.10;56.60;;;;;;4996806;28;20026;-87
2023/09/05 09:03:09;;;;;;;2.40;1.40;;;27.20;56.90;;;;;;4996848;28;20391;-88
2023/09/05 09:05:38;;;;;;;1.50;1.40;;;27.30;56.00;;;;;;5005060;28;20045;-88
2023/09/05 09:08:04;;;;;;;4.40;1.77;;;27.40;56.40;;;;;;5006969;28;20022;-80
2023/09/05 09:10:31;;;;;;;1.95;1.40;;;27.50;56.10;;;;;;4977619;28;20066;-80
2023/09/05 09:13:17;;;;;;;2.58;1.65;;;27.60;56.50;;;;;;4978047;28;20035;-81
2023/09/05 09:15:43;;;;;;;2.30;1.60;;;27.80;54.70;;;;;;4976338;28;20375;-80
2023/09/05 09:18:13;;;;;;;5.57;1.90;;;27.80;54.90;;;;;;4976070;28;20031;-87
2023/09/05 09:20:43;;;;;;;3.80;2.13;;;27.90;54.30;;;;;;4976171;28;20038;-87
2023/09/05 09:23:09;;;;;;;2.15;1.50;;;27.90;53.90;;;;;;4976461;28;20040;-80
2023/09/05 09:25:45;;;;;;;1.75;1.30;;;27.90;54.70;;;;;;4993091;28;20022;-80
2023/09/05 09:28:28;;;;;;;3.63;1.67;;;28.00;54.60;;;;;;4994465;28;20101;-88
2023/09/05 09:30:58;;;;;;;3.28;1.50;;;28.10;53.90;;;;;;4994413;28;20027;-87
2023/09/05 09:33:24;;;;;;;2.90;1.60;;;28.10;54.60;;;;;;4992427;28;20038;-87
2023/09/05 09:36:06;;;;;;;3.03;2.22;;;28.30;54.70;;;;;;4995196;28;20034;-87
2023/09/05 09:38:32;;;;;;;2.03;1.58;;;28.40;52.50;;;;;;4994317;28;20109;-86
2023/09/05 09:41:01;;;;;;;2.63;1.75;;;28.40;53.40;;;;;;4992707;28;20031;-86
2023/09/05 09:43:30;;;;;;;2.60;1.38;;;28.60;52.60;;;;;;4994664;28;20038;-87
2023/09/05 09:46:00;;;;;;;9.90;2.15;;;28.70;53.40;;;;;;4994826;28;20037;-85
2023/09/05 09:48:27;;;;;;;;;;;28.80;50.30;;;;;;5006718;28;20394;-87
2023/09/05 09:50:57;;;;;;;3.75;1.27;;;28.90;51.60;;;;;;5014432;28;19916;-87
2023/09/05 09:53:34;;;;;;;1.42;1.33;;;29.00;51.00;;;;;;5005871;28;20022;-86
2023/09/05 09:56:13;;;;;;;2.92;1.70;;;29.10;51.80;;;;;;4994742;28;20038;-87
2023/09/05 09:58:40;;;;;;;3.03;1.58;;;29.10;50.50;;;;;;4994381;28;20026;-87
2023/09/05 10:01:11;;;;;;;2.38;1.60;;;29.10;50.40;;;;;;5009226;28;20033;-87
2023/09/05 10:03:42;;;;;;;1.73;1.38;;;29.20;51.30;;;;;;4991480;28;20026;-87
2023/09/05 10:06:08;;;;;;;2.42;1.70;;;29.40;50.50;;;;;;4994025;28;20549;-86
2023/09/05 10:08:35;;;;;;;3.40;1.73;;;29.50;50.50;;;;;;4994347;28;20083;-86
2023/09/05 10:11:02;;;;;;;2.05;1.40;;;29.60;49.70;;;;;;4994186;28;20109;-86
2023/09/05 10:13:32;;;;;;;1.75;1.40;;;29.70;50.00;;;;;;4994720;28;20081;-86
2023/09/05 10:16:01;;;;;;;3.70;1.90;;;29.90;50.10;;;;;;4994510;28;20463;-86
2023/09/05 10:18:28;;;;;;;2.00;1.70;;;29.90;47.90;;;;;;4994239;28;20025;-85
2023/09/05 10:20:56;;;;;;;2.65;1.50;;;30.00;48.10;;;;;;4994373;28;20401;-86
2023/09/05 10:23:23;;;;;;;2.15;1.40;;;30.00;48.50;;;;;;4994059;28;20022;-86
2023/09/05 10:25:50;;;;;;;2.45;1.45;;;30.20;48.60;;;;;;4995147;28;20041;-86
2023/09/05 10:28:17;;;;;;;3.85;1.38;;;30.30;48.90;;;;;;4994378;28;20073;-87
2023/09/05 10:30:49;;;;;;;5.10;1.70;;;30.40;48.10;;;;;;4993397;28;20414;-86
2023/09/05 10:33:17;;;;;;;2.33;1.70;;;30.50;48.80;;;;;;4993913;28;20026;-87
2023/09/05 10:35:44;;;;;;;2.08;1.35;;;30.70;48.60;;;;;;4993700;28;20026;-86
2023/09/05 10:38:12;;;;;;;2.20;1.23;;;30.80;49.20;;;;;;4994405;28;20504;-87
2023/09/05 10:40:39;;;;;;;2.90;1.70;;;31.00;48.80;;;;;;4994610;28;20030;-86
2023/09/05 10:43:14;;;;;;;9.43;1.92;;;31.20;47.40;;;;;;4994197;28;20340;-86
2023/09/05 10:45:40;;;;;;;3.88;1.60;;;31.20;46.70;;;;;;4974676;28;20035;-79
2023/09/05 10:48:12;;;;;;;2.63;1.65;;;31.20;47.00;;;;;;4962662;28;20509;-79
2023/09/05 10:51:08;;;;;;;2.42;1.58;;;31.20;46.40;;;;;;4993511;28;20521;-78
2023/09/05 10:53:38;;;;;;;3.08;1.70;;;31.20;45.60;;;;;;4993881;28;20018;-79
2023/09/05 10:56:04;;;;;;;3.50;1.85;;;31.30;47.20;;;;;;4993852;28;20121;-79
2023/09/05 10:58:42;;;;;;;1.85;1.50;;;31.40;44.70;;;;;;4993487;28;20027;-80
2023/09/05 11:01:31;;;;;;;3.10;1.77;;;31.50;46.10;;;;;;4992388;28;20038;-79
2023/09/05 11:04:03;;;;;;;4.38;1.65;;;31.60;46.20;;;;;;4990185;28;20026;-79
2023/09/05 11:06:33;;;;;;;2.75;1.60;;;31.80;46.90;;;;;;4984285;28;20101;-79
2023/09/05 11:09:04;;;;;;;;;;;32.00;47.10;;;;;;4978648;28;20108;-79
2023/09/05 11:11:43;;;;;;;3.80;1.65;;;32.10;44.00;;;;;;4997564;28;19917;-79
2023/09/05 11:14:09;;;;;;;3.17;1.83;;;32.20;46.20;;;;;;4998303;28;20072;-79
2023/09/05 11:16:51;;;;;;;2.72;1.90;;;32.40;45.50;;;;;;4996850;28;20016;-79
2023/09/05 11:19:38;;;;;;;5.63;1.75;;;32.60;45.10;;;;;;4980900;28;20037;-80
2023/09/05 11:22:17;;;;;;;2.50;1.80;;;32.60;44.10;;;;;;4993928;28;20041;-79
2023/09/05 11:24:47;;;;;;;2.78;1.98;;;32.70;43.20;;;;;;4976437;28;20024;-78
2023/09/05 11:27:33;;;;;;;2.88;1.50;;;32.80;44.00;;;;;;5000648;28;20060;-79
2023/09/05 11:30:04;;;;;;;3.58;1.92;;;32.90;43.50;;;;;;4995876;28;20042;-78
2023/09/05 11:32:34;;;;;;;3.50;1.83;;;33.00;42.90;;;;;;5002696;28;20030;-78
2023/09/05 11:35:03;;;;;;;1.85;1.40;;;33.20;43.40;;;;;;5000011;28;20041;-78
2023/09/05 11:37:29;;;;;;;2.60;1.83;;;33.50;43.70;;;;;;4995733;28;20034;-78
2023/09/05 11:40:07;;;;;;;2.78;1.55;;;33.70;41.60;;;;;;4996979;28;20028;-79
2023/09/05 11:42:34;;;;;;;4.03;1.83;;;33.70;42.90;;;;;;5002266;28;20096;-79
2023/09/05 11:45:00;;;;;;;3.38;1.73;;;34.00;41.30;;;;;;5006871;28;20481;-87
2023/09/05 11:47:28;;;;;;;2.42;1.65;;;34.20;42.70;;;;;;5006524;28;20026;-79
2023/09/05 11:49:56;;;;;;;1.83;1.70;;;34.50;43.50;;;;;;4973896;28;20429;-82
2023/09/05 11:52:23;;;;;;;1.85;1.58;;;34.80;44.00;;;;;;4982768;28;20058;-77
2023/09/05 11:54:51;;;;;;;3.60;1.67;;;35.00;42.80;;;;;;4996671;28;20097;-79
2023/09/05 11:57:20;;;;;;;2.63;1.83;;;35.20;43.40;;;;;;5009833;28;20095;-79
2023/09/05 11:59:47;;;;;;;3.33;1.90;;;35.30;41.20;;;;;;4989226;28;20035;-87
2023/09/05 12:02:18;;;;;;;2.05;1.55;;;35.30;39.10;;;;;;4981836;28;20042;-86
2023/09/05 12:04:46;;;;;;;2.13;1.60;;;35.20;40.50;;;;;;4996591;28;20030;-87
2023/09/05 12:07:11;;;;;;;1.80;1.42;;;35.40;40.70;;;;;;4997054;28;20062;-87
2023/09/05 12:09:38;;;;;;;1.92;1.63;;;35.50;41.30;;;;;;4997944;28;20044;-86
2023/09/05 12:12:12;;;;;;;3.03;1.60;;;35.70;41.90;;;;;;4997632;28;20034;-86
2023/09/05 12:14:54;;;;;;;1.90;1.73;;;35.90;39.80;;;;;;4974939;28;20031;-79
2023/09/05 12:17:22;;;;;;;2.45;1.70;;;36.00;40.20;;;;;;4994677;28;20101;-79
2023/09/05 12:19:49;;;;;;;4.80;1.63;;;36.10;40.70;;;;;;4995380;28;20030;-79
2023/09/05 12:22:30;;;;;;;1.95;1.55;;;36.20;40.90;;;;;;4995512;28;20039;-80
2023/09/05 12:25:15;;;;;;;3.15;1.55;;;36.30;39.50;;;;;;4985157;28;20096;-80
2023/09/05 12:27:46;;;;;;;2.15;1.67;;;36.10;39.20;;;;;;4985991;28;20034;-80
2023/09/05 12:30:31;;;;;;;2.95;1.60;;;36.30;39.40;;;;;;4998190;28;20042;-79
2023/09/05 12:33:01;;;;;;;4.25;1.75;;;36.30;39.10;;;;;;4993849;28;20030;-79
2023/09/05 12:35:29;;;;;;;3.17;2.40;;;36.30;37.30;;;;;;4995190;28;20034;-80
2023/09/05 12:37:56;;;;;;;3.03;2.00;;;36.20;36.00;;;;;;5003984;28;20030;-79
2023/09/05 12:40:23;;;;;;;2.35;1.55;;;36.20;38.30;;;;;;4995077;28;20411;-80
2023/09/05 12:42:49;;;;;;;2.03;1.50;;;36.30;38.20;;;;;;4993992;28;20054;-80
2023/09/05 12:45:16;;;;;;;2.45;1.73;;;36.30;38.40;;;;;;4994559;28;20034;-79
2023/09/05 12:47:43;;;;;;;3.55;1.90;;;36.20;38.00;;;;;;4994546;28;20022;-80
2023/09/05 12:50:15;;;;;;;2.67;1.55;;;36.20;38.60;;;;;;4994196;28;20026;-80
2023/09/05 12:52:42;;;;;;;1.92;1.55;;;36.20;38.00;;;;;;4990760;28;20059;-81